Airfield :
LOGIN :

Register | Disclaimer

   EN    FR    IT 

 










Legend :    VFR   Marginal VFR   IFR   Intensive IFR   Very Intensive IFR
Visi :
Ceiling :
>= 8 km
>= 3000ft
5 to 8 km
1000 to 3000 ft
1500m to 5 km
500 to 1000 ft
800 to 1500m
200 to 500 ft
< 800m
< 200 ft
Symbols :   Thunderstorms  Fog  Heavy snow  Heavy precipitations  Wind > 20 kt
SIGMETs :     Misc.  Thunderstorms  Icing  Turbulence  Mountain Waves  Volcanic Ashes






- Airport Elevation : 1247 ft
- IATA code : PRG


LKPR - Praha Ruzyne

CURRENT METAR :
  • 090430Z 28003KT CAVOK 03/M05 Q1021 NOSIG

EXPIRED METARs :
  • 090400Z 22005KT CAVOK 04/M06 Q1021 NOSIG
  • 090330Z 20003KT CAVOK 07/M06 Q1021 NOSIG
  • 090300Z 21003KT CAVOK 04/M06 Q1021 NOSIG
  • 090230Z 16003KT CAVOK 06/M07 Q1021 NOSIG
  • 090200Z 19003KT CAVOK 07/M06 Q1021 NOSIG

TAF TAF LKPR
Valid from the 09 at 00:00 until the 10 at 06:00 UTC


082300Z 0900/1006 18006KT CAVOK
BECMG 0900/0902 VRB02KT
BECMG 0907/0909 35008KT
TEMPO 0915/0918 36010G20KT 9999 SCT040



MET'MAP, your aeronautical weather chart ! - Copyright ORBIFLY December 2007 - Disclaimer

ORBIFLY MET'MAP TEAM :

Programming & Development : Alexandra Zaïnal
Concept & original design : Baudouin d'Aumeries
Assistance for programming : Marc-Olivier Méhu
Technical & hardware support : Manuel Goepfert

Contact : metmap@orbifly.com




SOURCES & CREDITS :

   NOAA